sensor_id;sensor_type;location;lat;lon;timestamp;pressure;altitude;pressure_sealevel;temperature;humidity
22653;BME280;11493;43.344;26.226;2023-07-24T00:00:20;99402.84;;;21.43;100.00
22653;BME280;11493;43.344;26.226;2023-07-24T00:02:48;99408.03;;;21.41;100.00
22653;BME280;11493;43.344;26.226;2023-07-24T00:05:16;99392.72;;;21.28;100.00
22653;BME280;11493;43.344;26.226;2023-07-24T00:07:43;99397.88;;;21.26;100.00
22653;BME280;11493;43.344;26.226;2023-07-24T00:10:10;99422.72;;;21.31;100.00
22653;BME280;11493;43.344;26.226;2023-07-24T00:12:38;99416.72;;;21.29;100.00
22653;BME280;11493;43.344;26.226;2023-07-24T00:15:05;99402.53;;;21.15;100.00
22653;BME280;11493;43.344;26.226;2023-07-24T00:17:32;99400.47;;;21.08;100.00
22653;BME280;11493;43.344;26.226;2023-07-24T00:19:59;99415.25;;;21.09;100.00
22653;BME280;11493;43.344;26.226;2023-07-24T00:22:28;99414.41;;;21.05;100.00
22653;BME280;11493;43.344;26.226;2023-07-24T00:24:55;99410.72;;;20.97;100.00
22653;BME280;11493;43.344;26.226;2023-07-24T00:27:22;99400.28;;;20.90;100.00
22653;BME280;11493;43.344;26.226;2023-07-24T00:29:49;99402.31;;;20.93;100.00
22653;BME280;11493;43.344;26.226;2023-07-24T00:32:16;99405.47;;;20.92;100.00
22653;BME280;11493;43.344;26.226;2023-07-24T00:34:43;99399.75;;;20.81;100.00
22653;BME280;11493;43.344;26.226;2023-07-24T00:37:10;99406.16;;;20.82;100.00
22653;BME280;11493;43.344;26.226;2023-07-24T00:39:37;99397.25;;;20.69;100.00
22653;BME280;11493;43.344;26.226;2023-07-24T00:42:04;99409.72;;;20.75;100.00
22653;BME280;11493;43.344;26.226;2023-07-24T00:44:31;99407.66;;;20.72;100.00
22653;BME280;11493;43.344;26.226;2023-07-24T00:46:58;99412.50;;;20.75;100.00
22653;BME280;11493;43.344;26.226;2023-07-24T00:49:25;99413.72;;;20.78;100.00
22653;BME280;11493;43.344;26.226;2023-07-24T00:51:52;99402.06;;;20.72;100.00
22653;BME280;11493;43.344;26.226;2023-07-24T00:54:19;99404.44;;;20.70;100.00
22653;BME280;11493;43.344;26.226;2023-07-24T00:56:50;99417.28;;;20.75;100.00
22653;BME280;11493;43.344;26.226;2023-07-24T00:59:17;99417.59;;;20.66;100.00
22653;BME280;11493;43.344;26.226;2023-07-24T01:01:44;99422.00;;;20.67;100.00
22653;BME280;11493;43.344;26.226;2023-07-24T01:04:12;99423.16;;;20.66;100.00
22653;BME280;11493;43.344;26.226;2023-07-24T01:06:39;99410.72;;;20.60;100.00
22653;BME280;11493;43.344;26.226;2023-07-24T01:09:06;99416.97;;;20.50;100.00
22653;BME280;11493;43.344;26.226;2023-07-24T01:11:41;99411.72;;;20.45;100.00
22653;BME280;11493;43.344;26.226;2023-07-24T01:16:38;99408.84;;;20.41;100.00
22653;BME280;11493;43.344;26.226;2023-07-24T01:19:12;99408.06;;;20.41;100.00
22653;BME280;11493;43.344;26.226;2023-07-24T01:22:08;99416.91;;;20.46;100.00
22653;BME280;11493;43.344;26.226;2023-07-24T01:24:46;99411.28;;;20.43;100.00
22653;BME280;11493;43.344;26.226;2023-07-24T01:27:23;99404.06;;;20.42;100.00
22653;BME280;11493;43.344;26.226;2023-07-24T01:29:50;99405.84;;;20.53;100.00
22653;BME280;11493;43.344;26.226;2023-07-24T01:32:18;99417.91;;;20.61;100.00
22653;BME280;11493;43.344;26.226;2023-07-24T01:34:47;99408.28;;;20.58;100.00
22653;BME280;11493;43.344;26.226;2023-07-24T01:37:14;99417.19;;;20.67;100.00
22653;BME280;11493;43.344;26.226;2023-07-24T01:39:43;99417.19;;;20.67;100.00
22653;BME280;11493;43.344;26.226;2023-07-24T01:42:11;99429.91;;;20.61;100.00
22653;BME280;11493;43.344;26.226;2023-07-24T01:44:38;99413.09;;;20.58;100.00
22653;BME280;11493;43.344;26.226;2023-07-24T01:47:05;99417.78;;;20.50;100.00
22653;BME280;11493;43.344;26.226;2023-07-24T01:49:32;99415.25;;;20.42;100.00
22653;BME280;11493;43.344;26.226;2023-07-24T01:51:59;99421.59;;;20.39;100.00
22653;BME280;11493;43.344;26.226;2023-07-24T01:54:26;99421.59;;;20.39;100.00
22653;BME280;11493;43.344;26.226;2023-07-24T01:56:53;99423.94;;;20.37;100.00
22653;BME280;11493;43.344;26.226;2023-07-24T01:59:20;99417.38;;;20.25;100.00
22653;BME280;11493;43.344;26.226;2023-07-24T02:01:47;99431.47;;;20.32;100.00
22653;BME280;11493;43.344;26.226;2023-07-24T02:04:14;99430.66;;;20.32;100.00
22653;BME280;11493;43.344;26.226;2023-07-24T02:06:41;99437.31;;;20.24;100.00
22653;BME280;11493;43.344;26.226;2023-07-24T02:09:09;99431.69;;;20.20;100.00
22653;BME280;11493;43.344;26.226;2023-07-24T02:11:36;99430.44;;;20.18;100.00
22653;BME280;11493;43.344;26.226;2023-07-24T02:14:03;99426.84;;;20.17;100.00
22653;BME280;11493;43.344;26.226;2023-07-24T02:16:30;99424.75;;;20.11;100.00
22653;BME280;11493;43.344;26.226;2023-07-24T02:18:58;99419.47;;;20.02;100.00
22653;BME280;11493;43.344;26.226;2023-07-24T02:21:25;99420.66;;;20.01;100.00
22653;BME280;11493;43.344;26.226;2023-07-24T02:23:54;99422.63;;;20.00;100.00
22653;BME280;11493;43.344;26.226;2023-07-24T02:26:20;99424.94;;;19.95;100.00
22653;BME280;11493;43.344;26.226;2023-07-24T02:28:47;99425.69;;;19.92;100.00
22653;BME280;11493;43.344;26.226;2023-07-24T02:31:14;99421.28;;;19.91;100.00
22653;BME280;11493;43.344;26.226;2023-07-24T02:33:44;99421.28;;;19.91;100.00
22653;BME280;11493;43.344;26.226;2023-07-24T02:36:12;99404.03;;;19.85;100.00
22653;BME280;11493;43.344;26.226;2023-07-24T02:38:40;99412.72;;;19.80;100.00
22653;BME280;11493;43.344;26.226;2023-07-24T02:41:07;99412.41;;;19.85;100.00
22653;BME280;11493;43.344;26.226;2023-07-24T02:43:35;99415.25;;;19.89;100.00
22653;BME280;11493;43.344;26.226;2023-07-24T02:46:02;99404.84;;;19.86;100.00
22653;BME280;11493;43.344;26.226;2023-07-24T02:48:29;99408.34;;;19.79;100.00
22653;BME280;11493;43.344;26.226;2023-07-24T02:50:56;99407.41;;;19.72;100.00
22653;BME280;11493;43.344;26.226;2023-07-24T02:53:23;99399.41;;;19.70;100.00
22653;BME280;11493;43.344;26.226;2023-07-24T02:55:50;99400.09;;;19.63;100.00
22653;BME280;11493;43.344;26.226;2023-07-24T02:58:17;99403.25;;;19.62;100.00
22653;BME280;11493;43.344;26.226;2023-07-24T03:00:44;99420.38;;;19.60;100.00
22653;BME280;11493;43.344;26.226;2023-07-24T03:03:11;99408.19;;;19.49;100.00
22653;BME280;11493;43.344;26.226;2023-07-24T03:05:38;99419.50;;;19.56;100.00
22653;BME280;11493;43.344;26.226;2023-07-24T03:08:05;99422.75;;;19.58;100.00
22653;BME280;11493;43.344;26.226;2023-07-24T03:10:32;99428.38;;;19.62;100.00
22653;BME280;11493;43.344;26.226;2023-07-24T03:12:59;99424.78;;;19.61;100.00
22653;BME280;11493;43.344;26.226;2023-07-24T03:15:26;99433.09;;;19.58;100.00
22653;BME280;11493;43.344;26.226;2023-07-24T03:17:53;99434.66;;;19.55;100.00
22653;BME280;11493;43.344;26.226;2023-07-24T03:20:21;99440.59;;;19.54;100.00
22653;BME280;11493;43.344;26.226;2023-07-24T03:22:48;99417.56;;;19.37;100.00
22653;BME280;11493;43.344;26.226;2023-07-24T03:25:15;99441.69;;;19.49;100.00
22653;BME280;11493;43.344;26.226;2023-07-24T03:27:42;99430.75;;;19.41;100.00
22653;BME280;11493;43.344;26.226;2023-07-24T03:30:09;99440.22;;;19.55;100.00
22653;BME280;11493;43.344;26.226;2023-07-24T03:32:37;99435.50;;;19.59;100.00
22653;BME280;11493;43.344;26.226;2023-07-24T03:35:05;99429.19;;;19.62;100.00
22653;BME280;11493;43.344;26.226;2023-07-24T03:37:34;99429.63;;;19.64;100.00
22653;BME280;11493;43.344;26.226;2023-07-24T03:40:01;99429.69;;;19.68;100.00
22653;BME280;11493;43.344;26.226;2023-07-24T03:42:31;99420.19;;;19.73;100.00
22653;BME280;11493;43.344;26.226;2023-07-24T03:44:58;99413.41;;;19.74;100.00
22653;BME280;11493;43.344;26.226;2023-07-24T03:47:25;99409.50;;;19.78;100.00
22653;BME280;11493;43.344;26.226;2023-07-24T03:49:55;99398.41;;;19.82;100.00
22653;BME280;11493;43.344;26.226;2023-07-24T03:52:22;99400.06;;;19.86;100.00
22653;BME280;11493;43.344;26.226;2023-07-24T03:54:51;99406.56;;;19.94;100.00
22653;BME280;11493;43.344;26.226;2023-07-24T03:57:18;99417.41;;;19.99;100.00
22653;BME280;11493;43.344;26.226;2023-07-24T03:59:45;99417.94;;;20.08;100.00
22653;BME280;11493;43.344;26.226;2023-07-24T04:02:12;99421.25;;;20.17;100.00
22653;BME280;11493;43.344;26.226;2023-07-24T04:04:39;99424.59;;;20.26;100.00
22653;BME280;11493;43.344;26.226;2023-07-24T04:07:06;99425.41;;;20.27;100.00
22653;BME280;11493;43.344;26.226;2023-07-24T04:09:33;99428.72;;;20.36;100.00
22653;BME280;11493;43.344;26.226;2023-07-24T04:12:00;99430.84;;;20.43;100.00
22653;BME280;11493;43.344;26.226;2023-07-24T04:14:27;99424.06;;;20.44;100.00
22653;BME280;11493;43.344;26.226;2023-07-24T04:16:55;99423.38;;;20.50;100.00
22653;BME280;11493;43.344;26.226;2023-07-24T04:19:22;99432.31;;;20.63;100.00
22653;BME280;11493;43.344;26.226;2023-07-24T04:21:50;99424.44;;;20.72;100.00
22653;BME280;11493;43.344;26.226;2023-07-24T04:24:17;99425.69;;;20.75;100.00
22653;BME280;11493;43.344;26.226;2023-07-24T04:26:44;99418.81;;;20.69;100.00
22653;BME280;11493;43.344;26.226;2023-07-24T04:29:12;99402.00;;;20.65;100.00
22653;BME280;11493;43.344;26.226;2023-07-24T04:31:42;99418.94;;;20.79;100.00
22653;BME280;11493;43.344;26.226;2023-07-24T04:34:09;99411.75;;;20.82;100.00
22653;BME280;11493;43.344;26.226;2023-07-24T04:36:36;99392.50;;;20.73;100.00
22653;BME280;11493;43.344;26.226;2023-07-24T04:39:03;99412.97;;;21.18;100.00
22653;BME280;11493;43.344;26.226;2023-07-24T04:41:30;99419.44;;;21.22;100.00
22653;BME280;11493;43.344;26.226;2023-07-24T04:43:57;99417.88;;;21.24;100.00
22653;BME280;11493;43.344;26.226;2023-07-24T04:46:24;99409.13;;;21.29;100.00
22653;BME280;11493;43.344;26.226;2023-07-24T04:48:51;99413.75;;;21.52;100.00
22653;BME280;11493;43.344;26.226;2023-07-24T04:51:22;99415.16;;;21.79;100.00
22653;BME280;11493;43.344;26.226;2023-07-24T04:53:49;99408.84;;;21.93;100.00
22653;BME280;11493;43.344;26.226;2023-07-24T04:56:16;99406.22;;;22.14;100.00
22653;BME280;11493;43.344;26.226;2023-07-24T04:58:43;99415.53;;;22.33;100.00
22653;BME280;11493;43.344;26.226;2023-07-24T05:01:10;99402.34;;;22.37;100.00
22653;BME280;11493;43.344;26.226;2023-07-24T05:03:37;99412.03;;;22.50;100.00
22653;BME280;11493;43.344;26.226;2023-07-24T05:06:04;99414.81;;;22.50;100.00
22653;BME280;11493;43.344;26.226;2023-07-24T05:08:32;99426.09;;;22.57;100.00
22653;BME280;11493;43.344;26.226;2023-07-24T05:11:00;99408.09;;;22.65;100.00
22653;BME280;11493;43.344;26.226;2023-07-24T05:13:27;99431.06;;;22.88;100.00
22653;BME280;11493;43.344;26.226;2023-07-24T05:15:54;99424.69;;;23.06;100.00
22653;BME280;11493;43.344;26.226;2023-07-24T05:18:23;99420.72;;;23.21;100.00
22653;BME280;11493;43.344;26.226;2023-07-24T05:20:50;99421.53;;;23.25;100.00
22653;BME280;11493;43.344;26.226;2023-07-24T05:23:20;99420.75;;;23.32;100.00
22653;BME280;11493;43.344;26.226;2023-07-24T05:25:57;99427.13;;;23.21;100.00
22653;BME280;11493;43.344;26.226;2023-07-24T05:28:29;99423.09;;;23.12;100.00
22653;BME280;11493;43.344;26.226;2023-07-24T05:30:59;99429.94;;;23.14;100.00
22653;BME280;11493;43.344;26.226;2023-07-24T05:33:26;99436.38;;;23.22;100.00
22653;BME280;11493;43.344;26.226;2023-07-24T05:36:00;99431.97;;;23.28;100.00
22653;BME280;11493;43.344;26.226;2023-07-24T05:38:28;99434.41;;;23.40;100.00
22653;BME280;11493;43.344;26.226;2023-07-24T05:41:01;99436.84;;;23.52;100.00
22653;BME280;11493;43.344;26.226;2023-07-24T05:43:29;99425.22;;;23.61;100.00
22653;BME280;11493;43.344;26.226;2023-07-24T05:45:57;99419.59;;;23.79;100.00
22653;BME280;11493;43.344;26.226;2023-07-24T05:48:24;99420.78;;;23.92;100.00
22653;BME280;11493;43.344;26.226;2023-07-24T05:50:52;99419.56;;;24.14;98.75
22653;BME280;11493;43.344;26.226;2023-07-24T05:53:19;99417.16;;;24.34;98.47
22653;BME280;11493;43.344;26.226;2023-07-24T05:55:46;99413.09;;;24.49;97.89
22653;BME280;11493;43.344;26.226;2023-07-24T05:58:13;99424.25;;;24.74;96.24
22653;BME280;11493;43.344;26.226;2023-07-24T06:00:41;99407.78;;;24.69;96.47
22653;BME280;11493;43.344;26.226;2023-07-24T06:03:08;99404.94;;;24.76;95.76
22653;BME280;11493;43.344;26.226;2023-07-24T06:05:35;99418.13;;;24.94;95.26
22653;BME280;11493;43.344;26.226;2023-07-24T06:08:02;99414.06;;;25.09;94.96
22653;BME280;11493;43.344;26.226;2023-07-24T06:10:29;99424.38;;;25.30;93.51
22653;BME280;11493;43.344;26.226;2023-07-24T06:12:56;99420.25;;;25.48;92.34
22653;BME280;11493;43.344;26.226;2023-07-24T06:15:23;99409.75;;;25.52;91.64
22653;BME280;11493;43.344;26.226;2023-07-24T06:17:50;99409.66;;;25.63;91.50
22653;BME280;11493;43.344;26.226;2023-07-24T06:20:20;99410.00;;;25.76;90.66
22653;BME280;11493;43.344;26.226;2023-07-24T06:22:47;99408.63;;;25.95;89.74
22653;BME280;11493;43.344;26.226;2023-07-24T06:25:14;99410.13;;;26.06;89.16
22653;BME280;11493;43.344;26.226;2023-07-24T06:27:42;99404.41;;;26.13;88.90
22653;BME280;11493;43.344;26.226;2023-07-24T06:30:09;99394.66;;;26.22;87.59
22653;BME280;11493;43.344;26.226;2023-07-24T06:32:42;99401.78;;;26.37;87.46
22653;BME280;11493;43.344;26.226;2023-07-24T06:35:10;99392.56;;;26.33;86.77
22653;BME280;11493;43.344;26.226;2023-07-24T06:37:37;99393.63;;;26.46;85.54
22653;BME280;11493;43.344;26.226;2023-07-24T06:40:05;99389.50;;;26.54;85.43
22653;BME280;11493;43.344;26.226;2023-07-24T06:42:33;99382.13;;;26.64;85.37
22653;BME280;11493;43.344;26.226;2023-07-24T06:45:00;99391.31;;;26.71;85.90
22653;BME280;11493;43.344;26.226;2023-07-24T06:47:27;99381.25;;;26.70;84.66
22653;BME280;11493;43.344;26.226;2023-07-24T06:49:54;99386.56;;;26.92;84.34
22653;BME280;11493;43.344;26.226;2023-07-24T06:52:21;99383.63;;;27.02;83.23
22653;BME280;11493;43.344;26.226;2023-07-24T06:54:48;99391.91;;;27.16;81.57
22653;BME280;11493;43.344;26.226;2023-07-24T06:57:15;99381.38;;;27.21;82.08
22653;BME280;11493;43.344;26.226;2023-07-24T06:59:42;99386.75;;;27.38;81.15
22653;BME280;11493;43.344;26.226;2023-07-24T07:02:09;99376.00;;;27.53;80.27
22653;BME280;11493;43.344;26.226;2023-07-24T07:04:36;99383.03;;;27.68;78.19
22653;BME280;11493;43.344;26.226;2023-07-24T07:07:03;99375.19;;;27.79;77.32
22653;BME280;11493;43.344;26.226;2023-07-24T07:09:30;99379.91;;;27.86;76.57
22653;BME280;11493;43.344;26.226;2023-07-24T07:11:57;99376.84;;;27.77;76.45
22653;BME280;11493;43.344;26.226;2023-07-24T07:14:26;99373.91;;;27.84;76.91
22653;BME280;11493;43.344;26.226;2023-07-24T07:16:53;99369.66;;;27.96;77.34
22653;BME280;11493;43.344;26.226;2023-07-24T07:19:19;99365.91;;;28.02;74.94
22653;BME280;11493;43.344;26.226;2023-07-24T07:21:47;99364.09;;;28.12;72.74
22653;BME280;11493;43.344;26.226;2023-07-24T07:24:14;99366.44;;;28.17;71.54
22653;BME280;11493;43.344;26.226;2023-07-24T07:26:41;99365.03;;;28.05;71.74
22653;BME280;11493;43.344;26.226;2023-07-24T07:29:09;99360.03;;;28.13;73.13
22653;BME280;11493;43.344;26.226;2023-07-24T07:31:36;99358.69;;;28.21;71.57
22653;BME280;11493;43.344;26.226;2023-07-24T07:34:03;99359.06;;;28.43;68.30
22653;BME280;11493;43.344;26.226;2023-07-24T07:36:30;99358.78;;;28.57;67.08
22653;BME280;11493;43.344;26.226;2023-07-24T07:38:58;99359.78;;;28.67;66.48
22653;BME280;11493;43.344;26.226;2023-07-24T07:41:25;99359.91;;;28.79;63.42
22653;BME280;11493;43.344;26.226;2023-07-24T07:43:52;99352.44;;;28.69;64.95
22653;BME280;11493;43.344;26.226;2023-07-24T07:46:19;99356.81;;;28.74;63.85
22653;BME280;11493;43.344;26.226;2023-07-24T07:48:48;99354.78;;;28.74;64.20
22653;BME280;11493;43.344;26.226;2023-07-24T07:51:15;99338.50;;;28.78;63.43
22653;BME280;11493;43.344;26.226;2023-07-24T07:53:43;99351.03;;;28.97;64.10
22653;BME280;11493;43.344;26.226;2023-07-24T07:56:10;99339.63;;;29.01;62.55
22653;BME280;11493;43.344;26.226;2023-07-24T07:58:37;99348.69;;;29.12;61.57
22653;BME280;11493;43.344;26.226;2023-07-24T08:01:05;99346.28;;;29.10;62.33
22653;BME280;11493;43.344;26.226;2023-07-24T08:03:32;99345.41;;;29.14;62.36
22653;BME280;11493;43.344;26.226;2023-07-24T08:06:00;99345.97;;;29.25;61.78
22653;BME280;11493;43.344;26.226;2023-07-24T08:08:27;99341.72;;;29.33;61.44
22653;BME280;11493;43.344;26.226;2023-07-24T08:10:54;99351.50;;;29.48;61.50
22653;BME280;11493;43.344;26.226;2023-07-24T08:13:21;99355.13;;;29.49;59.33
22653;BME280;11493;43.344;26.226;2023-07-24T08:15:49;99344.16;;;29.51;56.90
22653;BME280;11493;43.344;26.226;2023-07-24T08:18:16;99350.34;;;29.62;57.84
22653;BME280;11493;43.344;26.226;2023-07-24T08:20:43;99343.88;;;29.61;58.19
22653;BME280;11493;43.344;26.226;2023-07-24T08:23:10;99339.72;;;29.50;56.79
22653;BME280;11493;43.344;26.226;2023-07-24T08:25:37;99339.00;;;29.46;56.40
22653;BME280;11493;43.344;26.226;2023-07-24T08:28:04;99351.06;;;29.50;55.83
22653;BME280;11493;43.344;26.226;2023-07-24T08:30:35;99346.63;;;29.49;56.13
22653;BME280;11493;43.344;26.226;2023-07-24T08:33:02;99352.03;;;29.59;57.45
22653;BME280;11493;43.344;26.226;2023-07-24T08:35:29;99345.22;;;29.57;55.80
22653;BME280;11493;43.344;26.226;2023-07-24T08:37:57;99344.50;;;29.53;55.60
22653;BME280;11493;43.344;26.226;2023-07-24T08:40:23;99341.66;;;29.69;55.92
22653;BME280;11493;43.344;26.226;2023-07-24T08:42:51;99341.72;;;29.82;55.31
22653;BME280;11493;43.344;26.226;2023-07-24T08:45:19;99327.72;;;29.74;52.94
22653;BME280;11493;43.344;26.226;2023-07-24T08:47:46;99331.50;;;29.84;53.81
22653;BME280;11493;43.344;26.226;2023-07-24T08:50:17;99327.44;;;30.01;53.91
22653;BME280;11493;43.344;26.226;2023-07-24T08:52:45;99320.97;;;30.01;52.41
22653;BME280;11493;43.344;26.226;2023-07-24T08:55:13;99317.75;;;30.15;50.89
22653;BME280;11493;43.344;26.226;2023-07-24T08:57:40;99321.03;;;30.14;50.58
22653;BME280;11493;43.344;26.226;2023-07-24T09:00:11;99316.59;;;30.13;50.81
22653;BME280;11493;43.344;26.226;2023-07-24T09:02:38;99316.66;;;30.25;51.24
22653;BME280;11493;43.344;26.226;2023-07-24T09:05:05;99322.47;;;30.34;50.81
22653;BME280;11493;43.344;26.226;2023-07-24T09:07:33;99309.97;;;30.32;50.59
22653;BME280;11493;43.344;26.226;2023-07-24T09:10:00;99311.34;;;30.40;51.32
22653;BME280;11493;43.344;26.226;2023-07-24T09:12:27;99310.13;;;30.41;49.23
22653;BME280;11493;43.344;26.226;2023-07-24T09:15:04;99311.00;;;30.38;50.17
22653;BME280;11493;43.344;26.226;2023-07-24T09:17:33;99305.78;;;30.49;49.37
22653;BME280;11493;43.344;26.226;2023-07-24T09:20:01;99295.34;;;30.46;51.14
22653;BME280;11493;43.344;26.226;2023-07-24T09:22:29;99300.09;;;30.49;48.31
22653;BME280;11493;43.344;26.226;2023-07-24T09:24:57;99288.19;;;30.42;47.49
22653;BME280;11493;43.344;26.226;2023-07-24T09:27:26;99303.28;;;30.51;47.44
22653;BME280;11493;43.344;26.226;2023-07-24T09:29:58;99308.47;;;30.69;48.55
22653;BME280;11493;43.344;26.226;2023-07-24T09:32:27;99291.88;;;30.67;48.29
22653;BME280;11493;43.344;26.226;2023-07-24T09:34:54;99293.84;;;30.83;48.45
22653;BME280;11493;43.344;26.226;2023-07-24T09:37:26;99288.63;;;30.94;48.39
22653;BME280;11493;43.344;26.226;2023-07-24T09:39:53;99286.69;;;31.04;48.08
22653;BME280;11493;43.344;26.226;2023-07-24T09:42:34;99289.06;;;31.05;46.97
22653;BME280;11493;43.344;26.226;2023-07-24T09:45:18;99260.31;;;30.91;47.39
22653;BME280;11493;43.344;26.226;2023-07-24T09:47:49;99276.91;;;31.05;47.39
22653;BME280;11493;43.344;26.226;2023-07-24T09:50:23;99271.56;;;31.07;47.45
22653;BME280;11493;43.344;26.226;2023-07-24T09:52:50;99267.81;;;31.10;47.39
22653;BME280;11493;43.344;26.226;2023-07-24T09:55:22;99258.28;;;31.17;47.11
22653;BME280;11493;43.344;26.226;2023-07-24T09:57:54;99265.75;;;31.36;46.78
22653;BME280;11493;43.344;26.226;2023-07-24T10:00:21;99260.72;;;31.40;46.61
22653;BME280;11493;43.344;26.226;2023-07-24T10:02:51;99270.63;;;31.48;46.50
22653;BME280;11493;43.344;26.226;2023-07-24T10:05:18;99262.09;;;31.48;46.85
22653;BME280;11493;43.344;26.226;2023-07-24T10:07:45;99258.31;;;31.51;44.97
22653;BME280;11493;43.344;26.226;2023-07-24T10:10:13;99258.44;;;31.48;46.19
22653;BME280;11493;43.344;26.226;2023-07-24T10:12:41;99253.31;;;31.55;44.38
22653;BME280;11493;43.344;26.226;2023-07-24T10:15:15;99256.41;;;31.48;43.49
22653;BME280;11493;43.344;26.226;2023-07-24T10:17:43;99240.94;;;31.36;43.37
22653;BME280;11493;43.344;26.226;2023-07-24T10:20:11;99238.19;;;31.46;44.01
22653;BME280;11493;43.344;26.226;2023-07-24T10:22:42;99233.78;;;31.45;44.50
22653;BME280;11493;43.344;26.226;2023-07-24T10:25:10;99232.94;;;31.57;45.09
22653;BME280;11493;43.344;26.226;2023-07-24T10:27:44;99233.16;;;31.62;43.09
22653;BME280;11493;43.344;26.226;2023-07-24T10:30:13;99227.13;;;31.73;43.89
22653;BME280;11493;43.344;26.226;2023-07-24T10:33:13;99222.41;;;31.79;43.21
22653;BME280;11493;43.344;26.226;2023-07-24T10:35:46;99227.06;;;31.86;42.11
22653;BME280;11493;43.344;26.226;2023-07-24T10:38:16;99198.19;;;31.75;42.93
22653;BME280;11493;43.344;26.226;2023-07-24T10:40:46;99214.47;;;31.74;42.75
22653;BME280;11493;43.344;26.226;2023-07-24T10:43:19;99208.53;;;31.81;43.18
22653;BME280;11493;43.344;26.226;2023-07-24T10:45:52;99208.28;;;31.88;42.27
22653;BME280;11493;43.344;26.226;2023-07-24T10:48:21;99206.66;;;32.09;39.95
22653;BME280;11493;43.344;26.226;2023-07-24T10:50:49;99186.88;;;32.06;39.96
22653;BME280;11493;43.344;26.226;2023-07-24T10:53:21;99198.44;;;32.11;41.17
22653;BME280;11493;43.344;26.226;2023-07-24T10:55:50;99208.53;;;32.25;39.47
22653;BME280;11493;43.344;26.226;2023-07-24T10:58:17;99195.88;;;32.26;39.48
22653;BME280;11493;43.344;26.226;2023-07-24T11:00:44;99198.13;;;32.31;40.07
22653;BME280;11493;43.344;26.226;2023-07-24T11:03:13;99198.19;;;32.40;39.66
22653;BME280;11493;43.344;26.226;2023-07-24T11:05:42;99189.63;;;32.40;39.50
22653;BME280;11493;43.344;26.226;2023-07-24T11:08:15;99193.03;;;32.57;38.95
22653;BME280;11493;43.344;26.226;2023-07-24T11:10:46;99196.72;;;32.66;38.67
22653;BME280;11493;43.344;26.226;2023-07-24T11:13:21;99181.50;;;32.60;37.18
22653;BME280;11493;43.344;26.226;2023-07-24T11:15:50;99171.00;;;32.48;37.53
22653;BME280;11493;43.344;26.226;2023-07-24T11:18:19;99181.97;;;32.59;38.27
22653;BME280;11493;43.344;26.226;2023-07-24T11:21:12;99182.94;;;32.65;37.65
22653;BME280;11493;43.344;26.226;2023-07-24T11:23:51;99178.38;;;32.67;38.19
22653;BME280;11493;43.344;26.226;2023-07-24T11:26:20;99170.44;;;32.62;37.30
22653;BME280;11493;43.344;26.226;2023-07-24T11:28:52;99176.00;;;32.75;36.86
22653;BME280;11493;43.344;26.226;2023-07-24T11:31:19;99177.06;;;32.68;36.40
22653;BME280;11493;43.344;26.226;2023-07-24T11:33:49;99172.16;;;32.69;36.05
22653;BME280;11493;43.344;26.226;2023-07-24T11:36:16;99171.38;;;32.68;35.05
22653;BME280;11493;43.344;26.226;2023-07-24T11:38:47;99159.25;;;32.77;35.02
22653;BME280;11493;43.344;26.226;2023-07-24T11:41:16;99152.94;;;32.82;35.10
22653;BME280;11493;43.344;26.226;2023-07-24T11:43:50;99162.44;;;32.88;35.93
22653;BME280;11493;43.344;26.226;2023-07-24T11:48:52;99148.69;;;32.96;36.44
22653;BME280;11493;43.344;26.226;2023-07-24T11:51:25;99138.41;;;32.98;36.54
22653;BME280;11493;43.344;26.226;2023-07-24T11:54:04;99143.94;;;32.93;35.48
22653;BME280;11493;43.344;26.226;2023-07-24T11:56:32;99143.03;;;33.14;35.75
22653;BME280;11493;43.344;26.226;2023-07-24T11:59:13;99131.94;;;33.16;36.68
22653;BME280;11493;43.344;26.226;2023-07-24T12:01:41;99128.81;;;33.33;36.26
22653;BME280;11493;43.344;26.226;2023-07-24T12:04:13;99125.66;;;33.40;35.63
22653;BME280;11493;43.344;26.226;2023-07-24T12:06:40;99103.63;;;33.40;35.14
22653;BME280;11493;43.344;26.226;2023-07-24T12:09:07;99117.22;;;33.45;35.14
22653;BME280;11493;43.344;26.226;2023-07-24T12:11:41;99116.44;;;33.45;35.17
22653;BME280;11493;43.344;26.226;2023-07-24T12:14:14;99122.44;;;33.56;34.19
22653;BME280;11493;43.344;26.226;2023-07-24T12:16:42;99136.25;;;33.57;35.72
22653;BME280;11493;43.344;26.226;2023-07-24T12:19:09;99131.31;;;33.58;36.01
22653;BME280;11493;43.344;26.226;2023-07-24T12:21:36;99123.72;;;33.46;34.78
22653;BME280;11493;43.344;26.226;2023-07-24T12:24:03;99125.00;;;33.54;36.62
22653;BME280;11493;43.344;26.226;2023-07-24T12:26:31;99114.25;;;33.40;34.46
22653;BME280;11493;43.344;26.226;2023-07-24T12:28:58;99123.09;;;33.60;35.55
22653;BME280;11493;43.344;26.226;2023-07-24T12:31:27;99120.72;;;33.58;34.71
22653;BME280;11493;43.344;26.226;2023-07-24T12:33:55;99124.66;;;33.61;35.68
22653;BME280;11493;43.344;26.226;2023-07-24T12:36:23;99116.28;;;33.57;35.31
22653;BME280;11493;43.344;26.226;2023-07-24T12:38:50;99096.47;;;33.54;34.75
22653;BME280;11493;43.344;26.226;2023-07-24T12:41:17;99109.44;;;33.64;34.64
22653;BME280;11493;43.344;26.226;2023-07-24T12:43:44;99105.97;;;33.60;35.40
22653;BME280;11493;43.344;26.226;2023-07-24T12:46:11;99083.78;;;33.55;35.14
22653;BME280;11493;43.344;26.226;2023-07-24T12:48:38;99082.97;;;33.63;34.21
22653;BME280;11493;43.344;26.226;2023-07-24T12:51:05;99100.59;;;33.80;34.28
22653;BME280;11493;43.344;26.226;2023-07-24T12:53:51;99091.84;;;33.84;34.19
22653;BME280;11493;43.344;26.226;2023-07-24T12:56:39;99077.88;;;33.86;33.58